sensor_id;sensor_type;location;lat;lon;timestamp;pressure;altitude;pressure_sealevel;temperature;humidity
65754;BME280;52488;47.502;18.940;2023-02-13T00:00:33;100095.56;;;-0.63;78.97
65754;BME280;52488;47.502;18.940;2023-02-13T00:01:37;100097.38;;;-0.69;79.20
65754;BME280;52488;47.502;18.940;2023-02-13T00:02:40;100086.00;;;-0.73;79.39
65754;BME280;52488;47.502;18.940;2023-02-13T00:03:43;100090.97;;;-0.72;79.57
65754;BME280;52488;47.502;18.940;2023-02-13T00:04:46;100089.16;;;-0.75;79.35
65754;BME280;52488;47.502;18.940;2023-02-13T00:05:49;100092.31;;;-0.76;79.53
65754;BME280;52488;47.502;18.940;2023-02-13T00:06:52;100092.13;;;-0.73;79.48
65754;BME280;52488;47.502;18.940;2023-02-13T00:07:55;100092.31;;;-0.76;79.35
65754;BME280;52488;47.502;18.940;2023-02-13T00:08:58;100099.53;;;-0.83;79.59
65754;BME280;52488;47.502;18.940;2023-02-13T00:10:02;100100.44;;;-0.86;79.73
65754;BME280;52488;47.502;18.940;2023-02-13T00:11:05;100101.37;;;-0.89;79.87
65754;BME280;52488;47.502;18.940;2023-02-13T00:12:08;100094.72;;;-0.78;79.73
65754;BME280;52488;47.502;18.940;2023-02-13T00:13:11;100093.06;;;-0.76;79.36
65754;BME280;52488;47.502;18.940;2023-02-13T00:14:14;100089.66;;;-0.86;79.64
65754;BME280;52488;47.502;18.940;2023-02-13T00:15:18;100091.63;;;-0.95;80.01
65754;BME280;52488;47.502;18.940;2023-02-13T00:16:21;100103.81;;;-1.00;80.38
65754;BME280;52488;47.502;18.940;2023-02-13T00:17:24;100103.50;;;-1.02;80.47
65754;BME280;52488;47.502;18.940;2023-02-13T00:18:28;100106.66;;;-1.03;80.54
65754;BME280;52488;47.502;18.940;2023-02-13T00:19:32;100104.38;;;-0.96;80.42
65754;BME280;52488;47.502;18.940;2023-02-13T00:20:35;100098.09;;;-1.02;80.40
65754;BME280;52488;47.502;18.940;2023-02-13T00:21:38;100104.28;;;-1.11;80.71
65754;BME280;52488;47.502;18.940;2023-02-13T00:22:41;100111.59;;;-1.11;80.89
65754;BME280;52488;47.502;18.940;2023-02-13T00:23:44;100102.31;;;-1.10;80.67
65754;BME280;52488;47.502;18.940;2023-02-13T00:24:47;100112.06;;;-1.13;80.64
65754;BME280;52488;47.502;18.940;2023-02-13T00:25:50;100114.94;;;-1.16;80.63
65754;BME280;52488;47.502;18.940;2023-02-13T00:26:53;100116.25;;;-1.12;80.58
65754;BME280;52488;47.502;18.940;2023-02-13T00:27:56;100111.91;;;-1.18;80.65
65754;BME280;52488;47.502;18.940;2023-02-13T00:29:00;100119.13;;;-1.15;80.60
65754;BME280;52488;47.502;18.940;2023-02-13T00:30:03;100118.53;;;-1.19;80.61
65754;BME280;52488;47.502;18.940;2023-02-13T00:31:09;100106.69;;;-1.22;80.93
65754;BME280;52488;47.502;18.940;2023-02-13T00:32:13;100109.81;;;-1.23;81.12
65754;BME280;52488;47.502;18.940;2023-02-13T00:33:17;100111.03;;;-1.24;81.33
65754;BME280;52488;47.502;18.940;2023-02-13T00:34:20;100109.53;;;-1.16;80.90
65754;BME280;52488;47.502;18.940;2023-02-13T00:35:23;100112.66;;;-1.18;80.91
65754;BME280;52488;47.502;18.940;2023-02-13T00:36:26;100104.13;;;-1.16;80.79
65754;BME280;52488;47.502;18.940;2023-02-13T00:37:29;100109.09;;;-1.24;81.17
65754;BME280;52488;47.502;18.940;2023-02-13T00:38:33;100110.00;;;-1.27;81.34
65754;BME280;52488;47.502;18.940;2023-02-13T00:39:36;100109.53;;;-1.25;81.46
65754;BME280;52488;47.502;18.940;2023-02-13T00:40:39;100104.44;;;-1.23;81.41
65754;BME280;52488;47.502;18.940;2023-02-13T00:41:42;100108.00;;;-1.17;81.27
65754;BME280;52488;47.502;18.940;2023-02-13T00:42:46;100111.31;;;-1.13;81.10
65754;BME280;52488;47.502;18.940;2023-02-13T00:43:49;100104.87;;;-1.16;80.99
65754;BME280;52488;47.502;18.940;2023-02-13T00:44:53;100105.63;;;-1.15;80.99
65754;BME280;52488;47.502;18.940;2023-02-13T00:45:56;100111.78;;;-1.15;80.93
65754;BME280;52488;47.502;18.940;2023-02-13T00:47:02;100118.81;;;-1.17;80.98
65754;BME280;52488;47.502;18.940;2023-02-13T00:48:05;100116.56;;;-1.19;81.06
65754;BME280;52488;47.502;18.940;2023-02-13T00:49:09;100111.16;;;-1.19;81.09
65754;BME280;52488;47.502;18.940;2023-02-13T00:50:12;100108.94;;;-1.20;81.04
65754;BME280;52488;47.502;18.940;2023-02-13T00:51:15;100110.44;;;-1.19;81.07
65754;BME280;52488;47.502;18.940;2023-02-13T00:52:18;100111.63;;;-1.20;81.07
65754;BME280;52488;47.502;18.940;2023-02-13T00:53:23;100106.69;;;-1.22;81.33
65754;BME280;52488;47.502;18.940;2023-02-13T00:54:26;100107.44;;;-1.21;81.29
65754;BME280;52488;47.502;18.940;2023-02-13T00:55:29;100110.28;;;-1.16;81.08
65754;BME280;52488;47.502;18.940;2023-02-13T00:56:33;100112.38;;;-1.20;80.96
65754;BME280;52488;47.502;18.940;2023-02-13T00:57:37;100108.63;;;-1.22;81.00
65754;BME280;52488;47.502;18.940;2023-02-13T00:58:40;100111.63;;;-1.20;81.06
65754;BME280;52488;47.502;18.940;2023-02-13T00:59:43;100104.00;;;-1.22;80.96
65754;BME280;52488;47.502;18.940;2023-02-13T01:00:46;100101.87;;;-1.18;80.90
65754;BME280;52488;47.502;18.940;2023-02-13T01:01:49;100109.53;;;-1.16;80.86
65754;BME280;52488;47.502;18.940;2023-02-13T01:02:52;100096.19;;;-1.20;80.57
65754;BME280;52488;47.502;18.940;2023-02-13T01:03:56;100095.44;;;-1.20;80.53
65754;BME280;52488;47.502;18.940;2023-02-13T01:04:59;100097.56;;;-1.24;80.47
65754;BME280;52488;47.502;18.940;2023-02-13T01:06:02;100093.38;;;-1.25;80.67
65754;BME280;52488;47.502;18.940;2023-02-13T01:07:05;100096.53;;;-1.27;80.69
65754;BME280;52488;47.502;18.940;2023-02-13T01:08:09;100092.16;;;-1.34;81.07
65754;BME280;52488;47.502;18.940;2023-02-13T01:09:12;100099.22;;;-1.36;81.09
65754;BME280;52488;47.502;18.940;2023-02-13T01:10:16;100097.41;;;-1.39;81.27
65754;BME280;52488;47.502;18.940;2023-02-13T01:11:19;100099.22;;;-1.27;81.09
65754;BME280;52488;47.502;18.940;2023-02-13T01:12:22;100096.66;;;-1.30;80.74
65754;BME280;52488;47.502;18.940;2023-02-13T01:13:25;100098.63;;;-1.40;81.04
65754;BME280;52488;47.502;18.940;2023-02-13T01:14:29;100095.78;;;-1.46;81.34
65754;BME280;52488;47.502;18.940;2023-02-13T01:15:32;100098.66;;;-1.49;81.52
65754;BME280;52488;47.502;18.940;2023-02-13T01:16:36;100094.16;;;-1.52;81.60
65754;BME280;52488;47.502;18.940;2023-02-13T01:17:39;100095.63;;;-1.51;81.62
65754;BME280;52488;47.502;18.940;2023-02-13T01:18:43;100086.06;;;-1.52;81.71
65754;BME280;52488;47.502;18.940;2023-02-13T01:19:46;100082.34;;;-1.55;81.67
65754;BME280;52488;47.502;18.940;2023-02-13T01:21:00;100086.22;;;-1.56;81.69
65754;BME280;52488;47.502;18.940;2023-02-13T01:22:03;100079.19;;;-1.63;81.76
65754;BME280;52488;47.502;18.940;2023-02-13T01:23:07;100079.50;;;-1.61;81.87
65754;BME280;52488;47.502;18.940;2023-02-13T01:24:09;100087.59;;;-1.61;81.96
65754;BME280;52488;47.502;18.940;2023-02-13T01:25:12;100082.34;;;-1.64;82.18
65754;BME280;52488;47.502;18.940;2023-02-13T01:26:18;100088.59;;;-1.67;82.35
65754;BME280;52488;47.502;18.940;2023-02-13T01:27:22;100089.06;;;-1.69;82.49
65754;BME280;52488;47.502;18.940;2023-02-13T01:28:25;100087.13;;;-1.68;82.46
65754;BME280;52488;47.502;18.940;2023-02-13T01:29:28;100088.78;;;-1.71;82.47
65754;BME280;52488;47.502;18.940;2023-02-13T01:30:31;100081.59;;;-1.65;82.36
65754;BME280;52488;47.502;18.940;2023-02-13T01:31:34;100081.28;;;-1.57;82.22
65754;BME280;52488;47.502;18.940;2023-02-13T01:32:42;100085.19;;;-1.58;82.01
65754;BME280;52488;47.502;18.940;2023-02-13T01:33:45;100086.06;;;-1.52;81.94
65754;BME280;52488;47.502;18.940;2023-02-13T01:34:48;100082.75;;;-1.56;82.00
65754;BME280;52488;47.502;18.940;2023-02-13T01:35:51;100080.97;;;-1.60;82.15
65754;BME280;52488;47.502;18.940;2023-02-13T01:36:55;100079.78;;;-1.58;82.16
65754;BME280;52488;47.502;18.940;2023-02-13T01:37:58;100079.03;;;-1.59;82.22
65754;BME280;52488;47.502;18.940;2023-02-13T01:39:01;100082.94;;;-1.60;82.31
65754;BME280;52488;47.502;18.940;2023-02-13T01:40:07;100080.53;;;-1.58;82.38
65754;BME280;52488;47.502;18.940;2023-02-13T01:41:10;100085.47;;;-1.56;82.48
65754;BME280;52488;47.502;18.940;2023-02-13T01:42:21;100085.19;;;-1.58;82.67
65754;BME280;52488;47.502;18.940;2023-02-13T01:44:03;100081.72;;;-1.59;82.75
65754;BME280;52488;47.502;18.940;2023-02-13T01:45:25;100082.75;;;-1.56;82.54
65754;BME280;52488;47.502;18.940;2023-02-13T01:46:37;100075.59;;;-1.60;82.60
65754;BME280;52488;47.502;18.940;2023-02-13T01:47:47;100077.53;;;-1.60;82.54
65754;BME280;52488;47.502;18.940;2023-02-13T01:48:53;100069.31;;;-1.66;82.46
65754;BME280;52488;47.502;18.940;2023-02-13T01:50:15;100077.69;;;-1.64;82.51
65754;BME280;52488;47.502;18.940;2023-02-13T01:51:25;100071.09;;;-1.63;82.38
65754;BME280;52488;47.502;18.940;2023-02-13T01:52:29;100075.88;;;-1.67;82.45
65754;BME280;52488;47.502;18.940;2023-02-13T01:53:43;100079.03;;;-1.68;82.73
65754;BME280;52488;47.502;18.940;2023-02-13T01:54:47;100075.44;;;-1.65;82.79
65754;BME280;52488;47.502;18.940;2023-02-13T01:56:04;100078.91;;;-1.65;82.92
65754;BME280;52488;47.502;18.940;2023-02-13T01:57:21;100075.44;;;-1.65;83.18
65754;BME280;52488;47.502;18.940;2023-02-13T01:58:29;100081.88;;;-1.63;83.30
65754;BME280;52488;47.502;18.940;2023-02-13T01:59:52;100073.78;;;-1.63;83.10
65754;BME280;52488;47.502;18.940;2023-02-13T02:00:57;100073.50;;;-1.65;83.18
65754;BME280;52488;47.502;18.940;2023-02-13T02:02:01;100075.44;;;-1.65;83.33
65754;BME280;52488;47.502;18.940;2023-02-13T02:03:24;100068.72;;;-1.70;83.52
65754;BME280;52488;47.502;18.940;2023-02-13T02:04:32;100074.09;;;-1.70;83.54
65754;BME280;52488;47.502;18.940;2023-02-13T02:05:36;100074.84;;;-1.69;83.49
65754;BME280;52488;47.502;18.940;2023-02-13T02:06:44;100072.59;;;-1.62;83.31
65754;BME280;52488;47.502;18.940;2023-02-13T02:07:49;100066.91;;;-1.54;83.13
65754;BME280;52488;47.502;18.940;2023-02-13T02:08:56;100068.53;;;-1.48;83.07
65754;BME280;52488;47.502;18.940;2023-02-13T02:10:07;100069.44;;;-1.51;83.10
65754;BME280;52488;47.502;18.940;2023-02-13T02:11:31;100059.56;;;-1.54;83.11
65754;BME280;52488;47.502;18.940;2023-02-13T02:12:52;100065.56;;;-1.59;83.13
65754;BME280;52488;47.502;18.940;2023-02-13T02:13:57;100068.25;;;-1.68;83.43
65754;BME280;52488;47.502;18.940;2023-02-13T02:15:04;100067.66;;;-1.72;83.77
65754;BME280;52488;47.502;18.940;2023-02-13T02:16:07;100070.66;;;-1.70;83.90
65754;BME280;52488;47.502;18.940;2023-02-13T02:17:10;100070.06;;;-1.74;84.15
65754;BME280;52488;47.502;18.940;2023-02-13T02:18:19;100068.56;;;-1.75;84.16
65754;BME280;52488;47.502;18.940;2023-02-13T02:19:34;100063.47;;;-1.73;84.08
65754;BME280;52488;47.502;18.940;2023-02-13T02:21:04;100065.13;;;-1.76;84.10
65754;BME280;52488;47.502;18.940;2023-02-13T02:26:32;100069.75;;;-1.86;84.66
65754;BME280;52488;47.502;18.940;2023-02-13T02:39:21;100069.62;;;-1.82;84.89
65754;BME280;52488;47.502;18.940;2023-02-13T02:40:40;100063.78;;;-1.80;85.03
65754;BME280;52488;47.502;18.940;2023-02-13T02:41:57;100073.81;;;-1.72;84.89
65754;BME280;52488;47.502;18.940;2023-02-13T02:44:56;100071.72;;;-1.77;85.25
65754;BME280;52488;47.502;18.940;2023-02-13T02:48:21;100064.22;;;-1.54;84.79
65754;BME280;52488;47.502;18.940;2023-02-13T02:49:52;100061.50;;;-1.54;84.71
65754;BME280;52488;47.502;18.940;2023-02-13T02:51:16;100059.28;;;-1.65;84.92
65754;BME280;52488;47.502;18.940;2023-02-13T02:52:29;100062.41;;;-1.67;85.19
65754;BME280;52488;47.502;18.940;2023-02-13T02:53:41;100062.88;;;-1.68;85.11
65754;BME280;52488;47.502;18.940;2023-02-13T02:56:39;100061.97;;;-1.74;85.25
65754;BME280;52488;47.502;18.940;2023-02-13T02:57:59;100057.66;;;-1.81;85.29
65754;BME280;52488;47.502;18.940;2023-02-13T02:59:27;100055.69;;;-1.80;85.33
65754;BME280;52488;47.502;18.940;2023-02-13T03:00:51;100055.09;;;-1.84;85.30
65754;BME280;52488;47.502;18.940;2023-02-13T03:02:15;100064.97;;;-1.91;85.63
65754;BME280;52488;47.502;18.940;2023-02-13T03:03:37;100067.50;;;-1.96;85.90
65754;BME280;52488;47.502;18.940;2023-02-13T03:05:00;100065.00;;;-2.00;86.21
65754;BME280;52488;47.502;18.940;2023-02-13T03:07:36;100059.28;;;-2.02;86.76
65754;BME280;52488;47.502;18.940;2023-02-13T03:08:45;100053.59;;;-2.04;86.88
65754;BME280;52488;47.502;18.940;2023-02-13T03:10:17;100057.34;;;-2.01;86.74
65754;BME280;52488;47.502;18.940;2023-02-13T03:11:45;100059.00;;;-2.04;86.61
65754;BME280;52488;47.502;18.940;2023-02-13T03:13:17;100061.69;;;-2.04;86.63
65754;BME280;52488;47.502;18.940;2023-02-13T03:14:30;100060.78;;;-2.01;86.96
65754;BME280;52488;47.502;18.940;2023-02-13T03:15:36;100060.47;;;-2.03;87.36
65754;BME280;52488;47.502;18.940;2023-02-13T03:16:59;100058.53;;;-2.02;87.55
65754;BME280;52488;47.502;18.940;2023-02-13T03:18:22;100055.69;;;-1.99;87.54
65754;BME280;52488;47.502;18.940;2023-02-13T03:22:08;100063.78;;;-1.99;87.22
65754;BME280;52488;47.502;18.940;2023-02-13T03:23:16;100064.06;;;-1.97;86.99
65754;BME280;52488;47.502;18.940;2023-02-13T03:29:20;100066.00;;;-2.06;87.18
65754;BME280;52488;47.502;18.940;2023-02-13T03:30:59;100075.41;;;-2.11;87.26
65754;BME280;52488;47.502;18.940;2023-02-13T03:32:27;100063.91;;;-2.12;87.35
65754;BME280;52488;47.502;18.940;2023-02-13T03:33:48;100066.00;;;-2.06;87.21
65754;BME280;52488;47.502;18.940;2023-02-13T03:35:06;100064.97;;;-2.09;87.18
65754;BME280;52488;47.502;18.940;2023-02-13T03:38:04;100068.38;;;-2.18;87.54
65754;BME280;52488;47.502;18.940;2023-02-13T03:39:22;100061.66;;;-2.13;87.57
65754;BME280;52488;47.502;18.940;2023-02-13T03:40:50;100064.84;;;-2.05;87.52
65754;BME280;52488;47.502;18.940;2023-02-13T03:42:26;100061.97;;;-2.11;87.68
65754;BME280;52488;47.502;18.940;2023-02-13T03:43:41;100055.53;;;-2.14;87.81
65754;BME280;52488;47.502;18.940;2023-02-13T03:44:54;100061.50;;;-2.19;87.81
65754;BME280;52488;47.502;18.940;2023-02-13T03:46:18;100063.16;;;-2.21;87.99
65754;BME280;52488;47.502;18.940;2023-02-13T03:47:21;100064.03;;;-2.24;87.92
65754;BME280;52488;47.502;18.940;2023-02-13T03:48:37;100054.03;;;-2.24;87.99
65754;BME280;52488;47.502;18.940;2023-02-13T03:50:01;100052.69;;;-2.19;87.97
65754;BME280;52488;47.502;18.940;2023-02-13T03:51:09;100052.72;;;-2.10;87.77
65754;BME280;52488;47.502;18.940;2023-02-13T03:53:20;100048.06;;;-2.09;87.48
65754;BME280;52488;47.502;18.940;2023-02-13T03:54:26;100045.97;;;-2.05;87.51
65754;BME280;52488;47.502;18.940;2023-02-13T03:55:50;100039.41;;;-2.04;87.46
65754;BME280;52488;47.502;18.940;2023-02-13T03:57:17;100048.34;;;-2.07;87.55
65754;BME280;52488;47.502;18.940;2023-02-13T03:58:44;100042.69;;;-2.09;87.63
65754;BME280;52488;47.502;18.940;2023-02-13T04:00:10;100047.59;;;-2.17;87.83
65754;BME280;52488;47.502;18.940;2023-02-13T04:01:16;100052.84;;;-2.14;88.01
65754;BME280;52488;47.502;18.940;2023-02-13T04:02:24;100047.16;;;-2.06;87.98
65754;BME280;52488;47.502;18.940;2023-02-13T04:03:56;100043.87;;;-2.01;87.81
65754;BME280;52488;47.502;18.940;2023-02-13T04:05:08;100042.25;;;-1.99;87.74
65754;BME280;52488;47.502;18.940;2023-02-13T04:06:19;100042.81;;;-1.95;87.71
65754;BME280;52488;47.502;18.940;2023-02-13T04:07:23;100052.84;;;-1.86;87.62
65754;BME280;52488;47.502;18.940;2023-02-13T04:08:34;100050.03;;;-1.82;87.17
65754;BME280;52488;47.502;18.940;2023-02-13T04:09:40;100046.25;;;-1.85;87.15
65754;BME280;52488;47.502;18.940;2023-02-13T04:10:54;100051.50;;;-1.91;87.08
65754;BME280;52488;47.502;18.940;2023-02-13T04:12:16;100036.41;;;-1.88;86.97
65754;BME280;52488;47.502;18.940;2023-02-13T04:13:29;100050.59;;;-1.97;87.13
65754;BME280;52488;47.502;18.940;2023-02-13T04:15:46;100044.31;;;-2.03;87.40
65754;BME280;52488;47.502;18.940;2023-02-13T04:17:03;100054.50;;;-2.07;87.57
65754;BME280;52488;47.502;18.940;2023-02-13T04:18:16;100060.78;;;-2.10;87.82
65754;BME280;52488;47.502;18.940;2023-02-13T04:19:21;100053.00;;;-2.08;87.94
65754;BME280;52488;47.502;18.940;2023-02-13T04:20:27;100057.63;;;-2.08;88.08
65754;BME280;52488;47.502;18.940;2023-02-13T04:21:38;100053.91;;;-2.02;88.24
65754;BME280;52488;47.502;18.940;2023-02-13T04:22:46;100051.53;;;-2.00;88.44
65754;BME280;52488;47.502;18.940;2023-02-13T04:23:49;100057.34;;;-1.92;88.65
65754;BME280;52488;47.502;18.940;2023-02-13T04:24:52;100057.19;;;-1.98;88.86
65754;BME280;52488;47.502;18.940;2023-02-13T04:26:03;100048.50;;;-2.02;89.07
65754;BME280;52488;47.502;18.940;2023-02-13T04:27:12;100047.75;;;-2.02;89.30
65754;BME280;52488;47.502;18.940;2023-02-13T04:28:16;100050.59;;;-1.97;89.45
65754;BME280;52488;47.502;18.940;2023-02-13T04:29:21;100056.00;;;-1.97;89.56
65754;BME280;52488;47.502;18.940;2023-02-13T04:30:25;100046.87;;;-1.99;89.73
65754;BME280;52488;47.502;18.940;2023-02-13T04:31:28;100048.34;;;-1.89;89.82
65754;BME280;52488;47.502;18.940;2023-02-13T04:32:31;100040.56;;;-1.78;89.70
65754;BME280;52488;47.502;18.940;2023-02-13T04:33:34;100043.53;;;-1.67;89.56
65754;BME280;52488;47.502;18.940;2023-02-13T04:34:38;100041.59;;;-1.57;89.44
65754;BME280;52488;47.502;18.940;2023-02-13T04:35:40;100046.38;;;-1.52;89.46
65754;BME280;52488;47.502;18.940;2023-02-13T04:36:43;100039.19;;;-1.46;89.56
65754;BME280;52488;47.502;18.940;2023-02-13T04:37:47;100037.34;;;-1.40;89.62
65754;BME280;52488;47.502;18.940;2023-02-13T04:38:50;100035.12;;;-1.41;89.72
65754;BME280;52488;47.502;18.940;2023-02-13T04:39:53;100037.09;;;-1.51;90.01
65754;BME280;52488;47.502;18.940;2023-02-13T04:40:56;100038.28;;;-1.61;90.34
65754;BME280;52488;47.502;18.940;2023-02-13T04:42:00;100040.28;;;-1.71;90.55
65754;BME280;52488;47.502;18.940;2023-02-13T04:43:03;100036.69;;;-1.77;90.72
65754;BME280;52488;47.502;18.940;2023-02-13T04:44:06;100036.97;;;-1.84;90.57
65754;BME280;52488;47.502;18.940;2023-02-13T04:45:09;100043.28;;;-1.87;90.47
65754;BME280;52488;47.502;18.940;2023-02-13T04:46:12;100039.69;;;-1.93;90.43
65754;BME280;52488;47.502;18.940;2023-02-13T04:47:15;100037.59;;;-1.98;90.50
65754;BME280;52488;47.502;18.940;2023-02-13T04:48:19;100039.22;;;-2.01;90.65
65754;BME280;52488;47.502;18.940;2023-02-13T04:49:22;100032.94;;;-1.98;90.82
65754;BME280;52488;47.502;18.940;2023-02-13T04:50:25;100040.59;;;-1.87;90.95
65754;BME280;52488;47.502;18.940;2023-02-13T04:51:28;100032.78;;;-1.85;91.02
65754;BME280;52488;47.502;18.940;2023-02-13T04:52:31;100038.50;;;-1.83;91.16
65754;BME280;52488;47.502;18.940;2023-02-13T04:53:35;100035.03;;;-1.83;91.16
65754;BME280;52488;47.502;18.940;2023-02-13T04:54:37;100035.06;;;-1.93;91.24
65754;BME280;52488;47.502;18.940;2023-02-13T04:55:40;100031.91;;;-2.00;91.29
65754;BME280;52488;47.502;18.940;2023-02-13T04:56:43;100039.81;;;-2.06;91.42
65754;BME280;52488;47.502;18.940;2023-02-13T04:57:46;100032.78;;;-2.13;91.49
65754;BME280;52488;47.502;18.940;2023-02-13T04:58:49;100030.25;;;-2.16;91.65
65754;BME280;52488;47.502;18.940;2023-02-13T04:59:52;100027.72;;;-2.20;91.79
65754;BME280;52488;47.502;18.940;2023-02-13T05:00:56;100032.03;;;-2.22;91.96
65754;BME280;52488;47.502;18.940;2023-02-13T05:01:59;100031.75;;;-2.24;92.11
65754;BME280;52488;47.502;18.940;2023-02-13T05:03:06;100026.34;;;-2.24;92.17
65754;BME280;52488;47.502;18.940;2023-02-13T05:04:09;100034.44;;;-2.24;92.24
65754;BME280;52488;47.502;18.940;2023-02-13T05:05:18;100035.19;;;-2.24;92.39
65754;BME280;52488;47.502;18.940;2023-02-13T05:06:21;100028.31;;;-2.16;92.43
65754;BME280;52488;47.502;18.940;2023-02-13T05:07:24;100024.88;;;-2.07;92.19
65754;BME280;52488;47.502;18.940;2023-02-13T05:08:27;100034.28;;;-2.02;91.81
65754;BME280;52488;47.502;18.940;2023-02-13T05:09:31;100021.91;;;-2.00;91.62
65754;BME280;52488;47.502;18.940;2023-02-13T05:10:34;100027.56;;;-1.98;91.51
65754;BME280;52488;47.502;18.940;2023-02-13T05:11:37;100022.16;;;-2.07;91.51
65754;BME280;52488;47.502;18.940;2023-02-13T05:12:40;100020.81;;;-2.12;91.64
65754;BME280;52488;47.502;18.940;2023-02-13T05:13:43;100022.03;;;-2.13;91.76
65754;BME280;52488;47.502;18.940;2023-02-13T05:14:46;100020.53;;;-2.14;91.84
65754;BME280;52488;47.502;18.940;2023-02-13T05:15:49;100023.81;;;-2.19;91.86
65754;BME280;52488;47.502;18.940;2023-02-13T05:16:54;100027.72;;;-2.20;91.96
65754;BME280;52488;47.502;18.940;2023-02-13T05:17:57;100030.53;;;-2.23;92.00
65754;BME280;52488;47.502;18.940;2023-02-13T05:19:01;100028.91;;;-2.30;92.13
65754;BME280;52488;47.502;18.940;2023-02-13T05:20:05;100028.44;;;-2.28;92.29
65754;BME280;52488;47.502;18.940;2023-02-13T05:21:08;100028.16;;;-2.30;92.34
65754;BME280;52488;47.502;18.940;2023-02-13T05:22:29;100030.56;;;-2.32;92.52
65754;BME280;52488;47.502;18.940;2023-02-13T05:23:51;100030.84;;;-2.30;92.63
65754;BME280;52488;47.502;18.940;2023-02-13T05:24:54;100026.94;;;-2.29;92.77
65754;BME280;52488;47.502;18.940;2023-02-13T05:25:57;100032.03;;;-2.31;92.83
65754;BME280;52488;47.502;18.940;2023-02-13T05:27:00;100020.84;;;-2.21;92.76
65754;BME280;52488;47.502;18.940;2023-02-13T05:28:05;100022.31;;;-2.20;92.30
65754;BME280;52488;47.502;18.940;2023-02-13T05:29:28;100018.12;;;-2.21;92.08
65754;BME280;52488;47.502;18.940;2023-02-13T05:30:31;100015.59;;;-2.24;92.07
65754;BME280;52488;47.502;18.940;2023-02-13T05:31:34;100023.81;;;-2.28;92.20
65754;BME280;52488;47.502;18.940;2023-02-13T05:32:37;100019.47;;;-2.34;92.43
65754;BME280;52488;47.502;18.940;2023-02-13T05:33:41;100027.37;;;-2.40;92.64
65754;BME280;52488;47.502;18.940;2023-02-13T05:34:44;100030.22;;;-2.44;92.88
65754;BME280;52488;47.502;18.940;2023-02-13T05:35:47;100028.28;;;-2.43;93.04
65754;BME280;52488;47.502;18.940;2023-02-13T05:36:50;100023.19;;;-2.41;93.06
65754;BME280;52488;47.502;18.940;2023-02-13T05:37:53;100027.53;;;-2.34;92.97
65754;BME280;52488;47.502;18.940;2023-02-13T05:38:56;100027.69;;;-2.29;92.80
65754;BME280;52488;47.502;18.940;2023-02-13T05:39:59;100029.81;;;-2.33;92.72
65754;BME280;52488;47.502;18.940;2023-02-13T05:41:02;100031.72;;;-2.33;92.73
65754;BME280;52488;47.502;18.940;2023-02-13T05:42:06;100021.88;;;-2.27;92.69
65754;BME280;52488;47.502;18.940;2023-02-13T05:43:08;100033.69;;;-2.25;92.36
65754;BME280;52488;47.502;18.940;2023-02-13T05:44:12;100030.09;;;-2.31;92.33
65754;BME280;52488;47.502;18.940;2023-02-13T05:45:15;100031.13;;;-2.37;92.41
65754;BME280;52488;47.502;18.940;2023-02-13T05:46:18;100035.62;;;-2.44;92.63
65754;BME280;52488;47.502;18.940;2023-02-13T05:47:21;100027.37;;;-2.49;92.88
65754;BME280;52488;47.502;18.940;2023-02-13T05:48:24;100029.75;;;-2.51;93.13
65754;BME280;52488;47.502;18.940;2023-02-13T05:49:27;100025.12;;;-2.51;93.34
65754;BME280;52488;47.502;18.940;2023-02-13T05:50:30;100033.19;;;-2.51;93.48
65754;BME280;52488;47.502;18.940;2023-02-13T05:51:33;100034.41;;;-2.52;93.70
65754;BME280;52488;47.502;18.940;2023-02-13T05:52:36;100029.75;;;-2.51;93.91
65754;BME280;52488;47.502;18.940;2023-02-13T05:53:39;100040.97;;;-2.53;93.97
65754;BME280;52488;47.502;18.940;2023-02-13T05:54:43;100036.03;;;-2.54;93.99
65754;BME280;52488;47.502;18.940;2023-02-13T05:55:46;100030.94;;;-2.52;93.90
65754;BME280;52488;47.502;18.940;2023-02-13T05:56:49;100036.94;;;-2.48;93.82
65754;BME280;52488;47.502;18.940;2023-02-13T05:57:56;100033.84;;;-2.37;93.55
65754;BME280;52488;47.502;18.940;2023-02-13T05:58:59;100040.41;;;-2.29;93.24
65754;BME280;52488;47.502;18.940;2023-02-13T06:00:03;100039.50;;;-2.35;93.06
65754;BME280;52488;47.502;18.940;2023-02-13T06:01:06;100034.88;;;-2.35;93.11
65754;BME280;52488;47.502;18.940;2023-02-13T06:02:09;100033.56;;;-2.21;93.01
65754;BME280;52488;47.502;18.940;2023-02-13T06:03:13;100024.72;;;-2.13;92.74
65754;BME280;52488;47.502;18.940;2023-02-13T06:04:16;100043.87;;;-2.20;92.83
65754;BME280;52488;47.502;18.940;2023-02-13T06:05:19;100040.72;;;-2.27;93.15
65754;BME280;52488;47.502;18.940;2023-02-13T06:06:22;100041.31;;;-2.32;93.48
65754;BME280;52488;47.502;18.940;2023-02-13T06:07:27;100048.50;;;-2.38;93.65
65754;BME280;52488;47.502;18.940;2023-02-13T06:08:29;100043.53;;;-2.40;93.76
65754;BME280;52488;47.502;18.940;2023-02-13T06:09:33;100044.72;;;-2.41;93.77
65754;BME280;52488;47.502;18.940;2023-02-13T06:10:36;100056.09;;;-2.37;93.81
65754;BME280;52488;47.502;18.940;2023-02-13T06:11:39;100052.50;;;-2.34;93.88
65754;BME280;52488;47.502;18.940;2023-02-13T06:12:42;100060.00;;;-2.38;93.97
65754;BME280;52488;47.502;18.940;2023-02-13T06:13:45;100061.94;;;-2.38;94.06
65754;BME280;52488;47.502;18.940;2023-02-13T06:14:48;100064.03;;;-2.24;93.97
65754;BME280;52488;47.502;18.940;2023-02-13T06:15:51;100058.69;;;-2.15;93.71
65754;BME280;52488;47.502;18.940;2023-02-13T06:16:55;100061.97;;;-2.11;93.44
65754;BME280;52488;47.502;18.940;2023-02-13T06:17:58;100059.44;;;-2.15;93.25
65754;BME280;52488;47.502;18.940;2023-02-13T06:19:01;100064.22;;;-2.19;93.26
65754;BME280;52488;47.502;18.940;2023-02-13T06:20:05;100064.03;;;-2.24;93.36
65754;BME280;52488;47.502;18.940;2023-02-13T06:21:09;100064.34;;;-2.31;93.55
65754;BME280;52488;47.502;18.940;2023-02-13T06:22:12;100061.66;;;-2.31;93.77
65754;BME280;52488;47.502;18.940;2023-02-13T06:23:15;100066.44;;;-2.26;93.90